createdAt,value
2023-05-01T00:00:35.667Z,79.50
2023-05-01T00:01:35.666Z,79.40
2023-05-01T00:02:35.764Z,79.61
2023-05-01T00:03:35.861Z,79.30
2023-05-01T00:04:35.712Z,78.68
2023-05-01T00:05:35.723Z,78.68
2023-05-01T00:06:35.641Z,78.68
2023-05-01T00:07:35.608Z,78.68
2023-05-01T00:08:35.647Z,78.68
2023-05-01T00:09:35.594Z,78.68
2023-05-01T00:10:35.544Z,79.19
2023-05-01T00:11:35.585Z,78.68
2023-05-01T00:12:35.609Z,78.78
2023-05-01T00:13:35.517Z,78.47
2023-05-01T00:14:35.541Z,78.58
2023-05-01T00:15:35.501Z,79.13
2023-05-01T00:16:35.599Z,78.61
2023-05-01T00:17:35.541Z,78.41
2023-05-01T00:18:35.471Z,78.61
2023-05-01T00:19:35.482Z,78.82
2023-05-01T00:20:35.486Z,78.82
2023-05-01T00:21:35.456Z,78.82
2023-05-01T00:22:35.424Z,78.30
2023-05-01T00:23:35.418Z,78.72
2023-05-01T00:24:35.391Z,78.51
2023-05-01T00:25:35.439Z,78.51
2023-05-01T00:26:35.372Z,78.10
2023-05-01T00:27:35.397Z,78.30
2023-05-01T00:28:35.408Z,78.51
2023-05-01T00:29:35.367Z,78.61
2023-05-01T00:30:35.366Z,78.72
2023-05-01T00:31:35.453Z,79.03
2023-05-01T00:32:35.374Z,79.13
2023-05-01T00:33:35.292Z,79.23
2023-05-01T00:34:35.289Z,79.23
2023-05-01T00:35:35.320Z,78.92
2023-05-01T00:36:35.293Z,78.92
2023-05-01T00:37:35.331Z,79.23
2023-05-01T00:38:35.290Z,79.13
2023-05-01T00:39:35.245Z,79.64
2023-05-01T00:40:35.241Z,79.44
2023-05-01T00:41:35.225Z,79.64
2023-05-01T00:42:35.266Z,79.33
2023-05-01T00:43:35.513Z,79.64
2023-05-01T00:44:35.172Z,79.44
2023-05-01T00:45:35.227Z,79.13
2023-05-01T00:46:35.316Z,79.23
2023-05-01T00:47:35.264Z,79.13
2023-05-01T00:48:35.197Z,79.27
2023-05-01T00:49:35.145Z,79.27
2023-05-01T00:50:35.115Z,79.58
2023-05-01T00:51:35.141Z,79.06
2023-05-01T00:52:35.092Z,79.27
2023-05-01T00:53:35.395Z,79.47
2023-05-01T00:54:35.071Z,79.47
2023-05-01T00:55:35.069Z,79.37
2023-05-01T00:56:35.049Z,79.47
2023-05-01T00:57:35.018Z,79.58
2023-05-01T00:58:35.031Z,79.68
2023-05-01T00:59:35.004Z,79.68
2023-05-01T01:00:35.046Z,79.47
2023-05-01T01:01:35.072Z,79.37
2023-05-01T01:02:35.012Z,78.75
2023-05-01T01:03:34.949Z,78.86
2023-05-01T01:04:35.047Z,79.06
2023-05-01T01:05:34.923Z,78.86
2023-05-01T01:06:35.050Z,79.27
2023-05-01T01:07:34.906Z,79.99
2023-05-01T01:08:34.950Z,80.09
2023-05-01T01:09:34.920Z,80.30
2023-05-01T01:10:34.913Z,80.40
2023-05-01T01:11:34.867Z,80.61
2023-05-01T01:12:34.868Z,80.40
2023-05-01T01:13:35.157Z,79.99
2023-05-01T01:14:34.842Z,80.40
2023-05-01T01:15:34.833Z,80.19
2023-05-01T01:16:34.869Z,79.93
2023-05-01T01:17:34.830Z,79.58
2023-05-01T01:18:34.804Z,79.79
2023-05-01T01:19:34.825Z,79.79
2023-05-01T01:20:34.767Z,80.09
2023-05-01T01:21:34.766Z,79.99
2023-05-01T01:22:34.776Z,80.19
2023-05-01T01:23:34.731Z,80.44
2023-05-01T01:24:34.833Z,80.23
2023-05-01T01:25:34.746Z,80.75
2023-05-01T01:26:34.743Z,80.54
2023-05-01T01:27:34.722Z,80.65
2023-05-01T01:28:34.688Z,80.75
2023-05-01T01:29:34.745Z,81.05
2023-05-01T01:30:34.675Z,81.16
2023-05-01T01:31:34.852Z,81.05
2023-05-01T01:32:34.714Z,80.54
2023-05-01T01:33:34.707Z,80.44
2023-05-01T01:34:34.623Z,80.65
2023-05-01T01:35:34.624Z,80.65
2023-05-01T01:36:34.679Z,80.54
2023-05-01T01:37:34.614Z,80.44
2023-05-01T01:38:34.629Z,80.95
2023-05-01T01:39:34.560Z,80.75
2023-05-01T01:40:34.634Z,81.05
2023-05-01T01:41:34.559Z,80.85
2023-05-01T01:42:34.579Z,80.33
2023-05-01T01:43:34.536Z,80.85
2023-05-01T01:44:34.548Z,80.54
2023-05-01T01:45:34.517Z,80.54
2023-05-01T01:46:34.589Z,80.44
2023-05-01T01:47:34.565Z,80.54
2023-05-01T01:48:34.530Z,80.44
2023-05-01T01:49:34.511Z,80.33
2023-05-01T01:50:34.482Z,80.47
2023-05-01T01:51:34.490Z,80.37
2023-05-01T01:52:34.429Z,80.47
2023-05-01T01:53:34.419Z,80.37
2023-05-01T01:54:34.409Z,80.06
2023-05-01T01:55:34.394Z,80.16
2023-05-01T01:56:34.390Z,80.37
2023-05-01T01:57:34.390Z,80.16
2023-05-01T01:58:34.385Z,80.27
2023-05-01T01:59:34.430Z,80.47
2023-05-01T02:00:34.335Z,80.89
2023-05-01T02:01:34.365Z,80.89
2023-05-01T02:02:34.457Z,81.20
2023-05-01T02:03:34.494Z,81.61
2023-05-01T02:04:34.299Z,82.02
2023-05-01T02:05:34.298Z,82.12
2023-05-01T02:06:34.301Z,82.16
2023-05-01T02:07:34.373Z,82.06
2023-05-01T02:08:34.291Z,82.16
2023-05-01T02:09:34.224Z,81.65
2023-05-01T02:10:34.222Z,82.26
2023-05-01T02:11:34.237Z,82.47
2023-05-01T02:12:34.233Z,82.89
2023-05-01T02:13:34.545Z,82.68
2023-05-01T02:14:34.174Z,82.78
2023-05-01T02:15:34.167Z,82.57
2023-05-01T02:16:34.216Z,82.26
2023-05-01T02:17:34.168Z,82.47
2023-05-01T02:18:34.199Z,82.47
2023-05-01T02:19:34.135Z,82.37
2023-05-01T02:20:41.180Z,82.37
2023-05-01T02:21:34.076Z,82.78
2023-05-01T02:22:34.072Z,82.78
2023-05-01T02:23:34.084Z,82.78
2023-05-01T02:24:34.049Z,82.26
2023-05-01T02:25:34.035Z,81.75
2023-05-01T02:26:34.040Z,81.75
2023-05-01T02:27:34.023Z,81.75
2023-05-01T02:28:34.041Z,81.79
2023-05-01T02:29:34.051Z,82.20
2023-05-01T02:30:34.015Z,82.51
2023-05-01T02:31:34.161Z,82.51
2023-05-01T02:32:34.022Z,82.51
2023-05-01T02:33:33.957Z,82.30
2023-05-01T02:34:33.948Z,82.20
2023-05-01T02:35:33.948Z,82.30
2023-05-01T02:36:33.941Z,82.20
2023-05-01T02:37:33.898Z,81.99
2023-05-01T02:38:33.908Z,82.30
2023-05-01T02:39:33.883Z,83.13
2023-05-01T02:40:33.909Z,83.33
2023-05-01T02:41:33.863Z,83.54
2023-05-01T02:42:33.898Z,83.33
2023-05-01T02:43:33.836Z,83.64
2023-05-01T02:44:33.873Z,83.64
2023-05-01T02:45:33.872Z,83.75
2023-05-01T02:46:33.927Z,83.95
2023-05-01T02:47:33.866Z,84.06
2023-05-01T02:48:33.830Z,84.16
2023-05-01T02:49:33.873Z,84.16
2023-05-01T02:50:33.807Z,83.85
2023-05-01T02:51:33.778Z,84.06
2023-05-01T02:52:33.836Z,83.95
2023-05-01T02:53:33.844Z,84.27
2023-05-01T02:54:33.833Z,84.36
2023-05-01T02:55:33.828Z,84.81
2023-05-01T02:56:33.916Z,84.81
2023-05-01T02:57:33.837Z,84.36
2023-05-01T02:58:33.961Z,84.51
2023-05-01T02:59:33.825Z,84.72
2023-05-01T03:00:33.717Z,84.81
2023-05-01T03:01:33.965Z,84.81
2023-05-01T03:02:33.910Z,84.72
2023-05-01T03:03:33.706Z,84.51
2023-05-01T03:04:33.713Z,84.30
2023-05-01T03:05:33.912Z,84.30
2023-05-01T03:06:33.635Z,84.51
2023-05-01T03:07:33.574Z,84.51
2023-05-01T03:08:33.562Z,84.81
2023-05-01T03:09:33.538Z,84.72
2023-05-01T03:10:33.535Z,84.51
2023-05-01T03:11:33.544Z,84.41
2023-05-01T03:12:33.517Z,84.20
2023-05-01T03:13:33.498Z,84.09
2023-05-01T03:14:33.501Z,83.99
2023-05-01T03:15:33.478Z,83.99
2023-05-01T03:16:33.540Z,84.09
2023-05-01T03:17:33.475Z,84.30
2023-05-01T03:18:33.450Z,84.20
2023-05-01T03:19:33.433Z,84.30
2023-05-01T03:20:33.444Z,83.99
2023-05-01T03:21:33.437Z,84.09
2023-05-01T03:22:33.622Z,83.78
2023-05-01T03:23:33.396Z,83.68
2023-05-01T03:24:33.415Z,84.20
2023-05-01T03:25:33.361Z,84.20
2023-05-01T03:26:33.379Z,84.44
2023-05-01T03:27:33.371Z,84.55
2023-05-01T03:28:33.340Z,84.23
2023-05-01T03:29:33.325Z,84.65
2023-05-01T03:30:33.318Z,84.55
2023-05-01T03:31:33.382Z,84.65
2023-05-01T03:32:33.329Z,84.03
2023-05-01T03:33:33.317Z,84.03
2023-05-01T03:34:33.278Z,84.03
2023-05-01T03:35:33.314Z,84.34
2023-05-01T03:36:33.259Z,84.34
2023-05-01T03:37:33.222Z,84.44
2023-05-01T03:38:33.244Z,84.34
2023-05-01T03:39:33.201Z,84.44
2023-05-01T03:40:33.210Z,84.55
2023-05-01T03:41:33.187Z,84.75
2023-05-01T03:42:33.284Z,84.34
2023-05-01T03:43:33.179Z,84.55
2023-05-01T03:44:33.178Z,84.55
2023-05-01T03:45:33.147Z,85.06
2023-05-01T03:46:33.165Z,85.17
2023-05-01T03:47:33.124Z,84.86
2023-05-01T03:48:33.124Z,84.75
2023-05-01T03:49:33.089Z,84.89
2023-05-01T03:50:33.126Z,85.00
2023-05-01T03:51:33.067Z,84.79
2023-05-01T03:52:33.077Z,84.69
2023-05-01T03:53:33.044Z,85.10
2023-05-01T03:54:33.046Z,85.31
2023-05-01T03:55:33.050Z,84.89
2023-05-01T03:56:33.040Z,84.89
2023-05-01T03:57:33.040Z,85.10
2023-05-01T03:58:33.035Z,85.21
2023-05-01T03:59:33.005Z,85.10
2023-05-01T04:00:33.002Z,85.10
2023-05-01T04:01:32.979Z,85.31
2023-05-01T04:02:33.036Z,85.21
2023-05-01T04:03:33.089Z,85.41
2023-05-01T04:04:33.103Z,85.72
2023-05-01T04:05:32.912Z,85.72
2023-05-01T04:06:33.359Z,85.83
2023-05-01T04:07:32.917Z,85.41
2023-05-01T04:08:32.907Z,85.00
2023-05-01T04:09:32.883Z,85.00
2023-05-01T04:10:32.887Z,85.10
2023-05-01T04:11:32.866Z,85.10
2023-05-01T04:12:32.895Z,85.31
2023-05-01T04:13:32.835Z,85.10
2023-05-01T04:14:32.835Z,85.21
2023-05-01T04:15:32.811Z,85.31
2023-05-01T04:16:32.896Z,85.41
2023-05-01T04:17:32.893Z,85.72
2023-05-01T04:18:32.806Z,85.47
2023-05-01T04:19:32.755Z,85.06
2023-05-01T04:20:32.761Z,85.41
2023-05-01T04:21:32.784Z,85.52
2023-05-01T04:22:32.774Z,85.52
2023-05-01T04:23:32.727Z,85.78
2023-05-01T04:24:32.722Z,85.78
2023-05-01T04:25:32.698Z,85.99
2023-05-01T04:26:32.685Z,85.68
2023-05-01T04:27:32.702Z,86.20
2023-05-01T04:28:32.669Z,86.20
2023-05-01T04:29:32.644Z,85.89
2023-05-01T04:30:32.645Z,85.99
2023-05-01T04:31:32.654Z,86.30
2023-05-01T04:32:32.682Z,86.41
2023-05-01T04:33:32.609Z,86.51
2023-05-01T04:34:32.642Z,86.41
2023-05-01T04:35:32.577Z,86.20
2023-05-01T04:36:32.598Z,85.89
2023-05-01T04:37:32.555Z,86.30
2023-05-01T04:38:32.565Z,86.20
2023-05-01T04:39:32.534Z,86.30
2023-05-01T04:40:32.522Z,85.95
2023-05-01T04:41:32.516Z,86.16
2023-05-01T04:42:32.541Z,86.05
2023-05-01T04:43:32.498Z,86.16
2023-05-01T04:44:32.513Z,85.95
2023-05-01T04:45:32.472Z,85.95
2023-05-01T04:46:32.512Z,86.05
2023-05-01T04:47:32.517Z,86.16
2023-05-01T04:48:32.459Z,86.36
2023-05-01T04:49:32.420Z,86.36
2023-05-01T04:50:32.423Z,86.05
2023-05-01T04:51:32.409Z,86.02
2023-05-01T04:52:32.456Z,86.02
2023-05-01T04:53:32.451Z,86.53
2023-05-01T04:54:32.378Z,86.53
2023-05-01T04:55:32.349Z,86.53
2023-05-01T04:56:32.370Z,86.22
2023-05-01T04:57:32.354Z,86.22
2023-05-01T04:58:32.341Z,85.81
2023-05-01T04:59:32.336Z,85.60
2023-05-01T05:00:32.322Z,85.57
2023-05-01T05:01:32.366Z,85.57
2023-05-01T05:02:32.388Z,85.67
2023-05-01T05:03:32.433Z,85.67
2023-05-01T05:04:32.278Z,85.57
2023-05-01T05:05:32.263Z,85.36
2023-05-01T05:06:32.309Z,85.46
2023-05-01T05:07:32.245Z,85.36
2023-05-01T05:08:32.241Z,85.52
2023-05-01T05:09:32.224Z,85.83
2023-05-01T05:10:32.192Z,85.73
2023-05-01T05:11:32.188Z,85.42
2023-05-01T05:12:32.191Z,85.31
2023-05-01T05:13:32.166Z,85.22
2023-05-01T05:14:32.138Z,85.22
2023-05-01T05:15:32.147Z,85.01
2023-05-01T05:16:32.170Z,85.31
2023-05-01T05:17:32.148Z,85.31
2023-05-01T05:18:32.107Z,85.31
2023-05-01T05:19:32.095Z,85.17
2023-05-01T05:20:32.082Z,85.59
2023-05-01T05:21:32.068Z,85.28
2023-05-01T05:22:32.052Z,85.28
2023-05-01T05:23:32.094Z,85.17
2023-05-01T05:24:32.040Z,84.77
2023-05-01T05:25:32.032Z,84.66
2023-05-01T05:26:32.012Z,84.35
2023-05-01T05:27:32.010Z,84.31
2023-05-01T05:28:31.988Z,84.42
2023-05-01T05:29:32.022Z,84.52
2023-05-01T05:30:31.976Z,84.31
2023-05-01T05:31:32.080Z,84.52
2023-05-01T05:32:32.040Z,84.42
2023-05-01T05:33:31.933Z,84.62
2023-05-01T05:34:31.984Z,84.79
2023-05-01T05:35:31.925Z,84.58
2023-05-01T05:36:31.895Z,84.58
2023-05-01T05:37:31.900Z,83.97
2023-05-01T05:38:31.904Z,83.45
2023-05-01T05:39:31.922Z,83.45
2023-05-01T05:40:31.857Z,83.86
2023-05-01T05:41:31.856Z,84.07
2023-05-01T05:42:31.840Z,84.27
2023-05-01T05:43:31.823Z,84.03
2023-05-01T05:44:31.801Z,84.34
2023-05-01T05:45:31.816Z,84.75
2023-05-01T05:46:31.874Z,84.75
2023-05-01T05:47:31.804Z,85.06
2023-05-01T05:48:31.771Z,84.95
2023-05-01T05:49:31.759Z,84.64
2023-05-01T05:50:31.793Z,84.61
2023-05-01T05:51:31.836Z,84.61
2023-05-01T05:52:31.736Z,83.89
2023-05-01T05:53:31.745Z,83.89
2023-05-01T05:54:31.696Z,84.20
2023-05-01T05:55:31.705Z,83.99
2023-05-01T05:56:31.685Z,83.68
2023-05-01T05:57:31.673Z,83.17
2023-05-01T05:58:31.696Z,82.86
2023-05-01T05:59:31.643Z,82.76
2023-05-01T06:00:31.643Z,82.51
2023-05-01T06:01:31.628Z,82.51
2023-05-01T06:02:31.670Z,82.82
2023-05-01T06:03:31.817Z,83.03
2023-05-01T06:04:31.592Z,83.33
2023-05-01T06:05:31.730Z,83.33
2023-05-01T06:06:31.644Z,82.71
2023-05-01T06:07:31.578Z,82.62
2023-05-01T06:08:31.544Z,82.71
2023-05-01T06:09:31.559Z,82.89
2023-05-01T06:10:31.518Z,82.68
2023-05-01T06:11:31.537Z,82.68
2023-05-01T06:12:31.509Z,82.99
2023-05-01T06:13:31.518Z,83.81
2023-05-01T06:14:31.504Z,83.40
2023-05-01T06:15:31.529Z,83.50
2023-05-01T06:16:31.501Z,84.12
2023-05-01T06:17:31.494Z,84.01
2023-05-01T06:18:31.493Z,83.81
2023-05-01T06:19:31.432Z,83.98
2023-05-01T06:20:31.418Z,82.95
2023-05-01T06:21:31.439Z,83.05
2023-05-01T06:22:31.427Z,83.15
2023-05-01T06:23:31.432Z,83.15
2023-05-01T06:24:31.509Z,82.84
2023-05-01T06:25:31.449Z,83.05
2023-05-01T06:26:31.532Z,82.43
2023-05-01T06:27:31.515Z,82.13
2023-05-01T06:28:31.478Z,82.23
2023-05-01T06:29:31.468Z,82.64
2023-05-01T06:30:31.516Z,81.92
2023-05-01T06:31:31.568Z,81.99
2023-05-01T06:32:31.627Z,82.29
2023-05-01T06:33:31.524Z,82.60
2023-05-01T06:34:31.313Z,83.01
2023-05-01T06:35:31.538Z,83.42
2023-05-01T06:36:31.497Z,82.81
2023-05-01T06:37:31.223Z,82.70
2023-05-01T06:38:31.239Z,82.87
2023-05-01T06:39:31.272Z,83.28
2023-05-01T06:40:31.300Z,83.49
2023-05-01T06:41:31.233Z,83.90
2023-05-01T06:42:31.655Z,83.90
2023-05-01T06:43:31.285Z,84.20
2023-05-01T06:44:32.751Z,84.17
2023-05-01T06:45:31.332Z,83.86
2023-05-01T06:46:31.289Z,84.06
2023-05-01T06:47:31.658Z,83.86
2023-05-01T06:48:31.359Z,83.51
2023-05-01T06:49:31.570Z,83.41
2023-05-01T06:50:31.405Z,82.90
2023-05-01T06:51:31.790Z,82.49
2023-05-01T06:52:31.327Z,83.31
2023-05-01T06:53:31.335Z,83.27
2023-05-01T06:54:31.022Z,82.65
2023-05-01T06:55:31.492Z,82.45
2023-05-01T06:56:31.020Z,81.63
2023-05-01T06:57:31.008Z,80.81
2023-05-01T06:58:31.004Z,80.88
2023-05-01T06:59:30.983Z,79.13
2023-05-01T07:00:30.993Z,79.03
2023-05-01T07:01:32.691Z,79.24
2023-05-01T07:02:31.023Z,79.30
2023-05-01T07:03:31.001Z,79.30
2023-05-01T07:04:30.942Z,79.00
2023-05-01T07:05:30.926Z,78.69
2023-05-01T07:06:30.971Z,79.06
2023-05-01T07:07:30.899Z,79.16
2023-05-01T07:08:30.888Z,78.75
2023-05-01T07:09:30.872Z,78.65
2023-05-01T07:10:30.854Z,78.65
2023-05-01T07:11:31.867Z,77.59
2023-05-01T07:12:30.852Z,77.49
2023-05-01T07:13:30.817Z,77.59
2023-05-01T07:14:30.839Z,77.39
2023-05-01T07:15:30.807Z,77.39
2023-05-01T07:16:30.831Z,77.56
2023-05-01T07:17:30.915Z,77.25
2023-05-01T07:18:30.799Z,76.74
2023-05-01T07:19:30.759Z,77.15
2023-05-01T07:20:30.732Z,77.62
2023-05-01T07:21:30.733Z,77.31
2023-05-01T07:22:30.828Z,77.52
2023-05-01T07:23:30.733Z,77.42
2023-05-01T07:24:30.726Z,77.42
2023-05-01T07:25:30.698Z,78.30
2023-05-01T07:26:30.675Z,77.69
2023-05-01T07:27:30.675Z,76.06
2023-05-01T07:28:30.669Z,76.67
2023-05-01T07:29:30.653Z,77.14
2023-05-01T07:30:30.679Z,77.65
2023-05-01T07:31:30.648Z,76.73
2023-05-01T07:32:30.612Z,76.22
2023-05-01T07:33:30.661Z,75.98
2023-05-01T07:34:30.603Z,75.57
2023-05-01T07:35:30.579Z,76.80
2023-05-01T07:36:30.561Z,77.41
2023-05-01T07:37:30.556Z,76.66
2023-05-01T07:38:30.551Z,76.15
2023-05-01T07:39:30.577Z,76.15
2023-05-01T07:40:30.526Z,75.85
2023-05-01T07:41:30.503Z,75.40
2023-05-01T07:42:30.493Z,74.79
2023-05-01T07:43:30.498Z,74.99
2023-05-01T07:44:30.720Z,75.30
2023-05-01T07:45:30.468Z,75.27
2023-05-01T07:46:30.534Z,75.67
2023-05-01T07:47:30.455Z,75.16
2023-05-01T07:48:30.428Z,74.25
2023-05-01T07:49:30.579Z,74.65
2023-05-01T07:50:30.400Z,75.95
2023-05-01T07:51:30.396Z,76.25
2023-05-01T07:52:30.386Z,76.15
2023-05-01T07:53:30.380Z,76.11
2023-05-01T07:54:30.349Z,72.55
2023-05-01T07:55:30.377Z,72.25
2023-05-01T07:56:30.375Z,73.77
2023-05-01T07:57:30.336Z,73.47
2023-05-01T07:58:30.306Z,71.70
2023-05-01T07:59:30.327Z,71.80
2023-05-01T08:00:30.321Z,73.23
2023-05-01T08:01:30.311Z,70.99
2023-05-01T08:02:30.460Z,71.70
2023-05-01T08:03:30.493Z,72.82
2023-05-01T08:04:30.345Z,73.54
2023-05-01T08:05:30.239Z,73.70
2023-05-01T08:06:30.277Z,73.39
2023-05-01T08:07:30.217Z,73.91
2023-05-01T08:08:30.198Z,72.48
2023-05-01T08:09:30.202Z,71.77
2023-05-01T08:10:30.183Z,71.36
2023-05-01T08:11:30.224Z,71.64
2023-05-01T08:12:30.152Z,72.75
2023-05-01T08:13:30.152Z,72.34
2023-05-01T08:14:30.136Z,69.91
2023-05-01T08:15:30.164Z,69.70
2023-05-01T08:16:30.211Z,71.50
2023-05-01T08:17:30.165Z,72.52
2023-05-01T08:18:30.125Z,71.09
2023-05-01T08:19:30.091Z,70.99
2023-05-01T08:20:30.080Z,70.35
2023-05-01T08:21:30.104Z,68.83
2023-05-01T08:22:30.038Z,68.83
2023-05-01T08:23:30.076Z,68.73
2023-05-01T08:24:30.041Z,70.86
2023-05-01T08:25:30.024Z,70.86
2023-05-01T08:26:30.000Z,72.08
2023-05-01T08:27:30.032Z,71.53
2023-05-01T08:28:30.001Z,71.33
2023-05-01T08:29:29.980Z,69.00
2023-05-01T08:30:29.953Z,70.11
2023-05-01T08:31:29.981Z,69.47
2023-05-01T08:32:30.048Z,71.30
2023-05-01T08:33:29.960Z,71.50
2023-05-01T08:34:29.913Z,73.39
2023-05-01T08:35:29.910Z,70.65
2023-05-01T08:36:29.881Z,68.19
2023-05-01T08:37:29.890Z,67.68
2023-05-01T08:38:29.906Z,69.71
2023-05-01T08:39:29.880Z,68.40
2023-05-01T08:40:29.853Z,69.78
2023-05-01T08:41:29.835Z,70.18
2023-05-01T08:42:32.172Z,69.65
2023-05-01T08:43:29.821Z,69.44
2023-05-01T08:44:29.842Z,68.50
2023-05-01T08:45:29.794Z,70.79
2023-05-01T08:46:29.811Z,69.58
2023-05-01T08:47:29.813Z,67.83
2023-05-01T08:48:29.747Z,64.39
2023-05-01T08:49:29.765Z,64.93
2023-05-01T08:50:29.748Z,65.94
2023-05-01T08:51:29.727Z,68.37
2023-05-01T08:52:29.706Z,68.63
2023-05-01T08:53:29.707Z,66.78
2023-05-01T08:54:29.701Z,66.78
2023-05-01T08:55:29.692Z,65.84
2023-05-01T08:56:29.664Z,65.41
2023-05-01T08:57:29.660Z,64.61
2023-05-01T08:58:29.646Z,63.26
2023-05-01T08:59:29.645Z,63.73
2023-05-01T09:00:29.611Z,63.64
2023-05-01T09:01:29.720Z,63.40
2023-05-01T09:02:29.671Z,64.31
2023-05-01T09:03:29.675Z,63.70
2023-05-01T09:04:29.569Z,65.29
2023-05-01T09:05:29.898Z,64.69
2023-05-01T09:06:29.629Z,64.86
2023-05-01T09:07:29.545Z,62.51
2023-05-01T09:08:29.539Z,60.19
2023-05-01T09:09:29.526Z,61.30
2023-05-01T09:10:30.657Z,59.19
2023-05-01T09:11:29.514Z,59.82
2023-05-01T09:12:29.492Z,61.33
2023-05-01T09:13:29.479Z,61.96
2023-05-01T09:14:29.455Z,64.11
2023-05-01T09:15:29.455Z,62.49
2023-05-01T09:16:29.584Z,62.49
2023-05-01T09:17:29.495Z,63.60
2023-05-01T09:18:29.439Z,63.90
2023-05-01T09:19:29.417Z,63.47
2023-05-01T09:20:29.413Z,61.33
2023-05-01T09:21:29.406Z,62.94
2023-05-01T09:22:29.378Z,61.13
2023-05-01T09:23:29.372Z,62.84
2023-05-01T09:24:29.356Z,61.13
2023-05-01T09:25:29.368Z,61.53
2023-05-01T09:26:29.380Z,63.42
2023-05-01T09:27:29.313Z,64.49
2023-05-01T09:28:29.320Z,63.79
2023-05-01T09:29:29.289Z,63.85
2023-05-01T09:30:29.301Z,63.53
2023-05-01T09:31:29.398Z,60.00
2023-05-01T09:32:29.390Z,59.38
2023-05-01T09:33:29.257Z,59.27
2023-05-01T09:34:29.240Z,59.00
2023-05-01T09:35:29.225Z,59.70
2023-05-01T09:36:29.248Z,61.41
2023-05-01T09:37:29.240Z,62.79
2023-05-01T09:38:29.254Z,59.98
2023-05-01T09:39:29.180Z,61.15
2023-05-01T09:40:29.228Z,60.32
2023-05-01T09:41:29.162Z,59.49
2023-05-01T09:42:29.173Z,59.77
2023-05-01T09:43:29.149Z,58.33
2023-05-01T09:44:29.165Z,57.33
2023-05-01T09:45:29.112Z,56.13
2023-05-01T09:46:29.158Z,54.32
2023-05-01T09:47:29.140Z,55.08
2023-05-01T09:48:29.099Z,56.03
2023-05-01T09:49:29.099Z,57.67
2023-05-01T09:50:29.094Z,58.87
2023-05-01T09:51:29.071Z,59.45
2023-05-01T09:52:29.077Z,61.15
2023-05-01T09:53:29.028Z,57.18
2023-05-01T09:54:29.038Z,55.88
2023-05-01T09:55:29.009Z,55.08
2023-05-01T09:56:29.016Z,55.35
2023-05-01T09:57:28.983Z,55.02
2023-05-01T09:58:29.041Z,54.30
2023-05-01T09:59:28.967Z,54.94
2023-05-01T10:00:28.972Z,53.42
2023-05-01T10:01:28.974Z,53.79
2023-05-01T10:02:29.111Z,52.89
2023-05-01T10:03:29.061Z,52.77
2023-05-01T10:04:28.941Z,52.55
2023-05-01T10:05:28.895Z,50.45
2023-05-01T10:06:29.037Z,48.29
2023-05-01T10:07:28.877Z,48.74
2023-05-01T10:08:28.911Z,49.71
2023-05-01T10:09:28.881Z,51.17
2023-05-01T10:10:28.859Z,52.01
2023-05-01T10:11:28.842Z,56.03
2023-05-01T10:12:28.870Z,57.41
2023-05-01T10:13:28.866Z,56.08
2023-05-01T10:14:28.921Z,55.35
2023-05-01T10:15:28.855Z,57.03
2023-05-01T10:16:28.932Z,55.07
2023-05-01T10:17:28.880Z,53.94
2023-05-01T10:18:28.998Z,53.62
2023-05-01T10:19:28.885Z,52.32
2023-05-01T10:20:28.906Z,52.02
2023-05-01T10:21:28.918Z,51.44
2023-05-01T10:22:28.949Z,54.67
2023-05-01T10:23:28.945Z,53.67
2023-05-01T10:24:29.044Z,54.47
2023-05-01T10:25:28.989Z,54.55
2023-05-01T10:26:28.974Z,52.82
2023-05-01T10:27:28.924Z,52.69
2023-05-01T10:28:28.894Z,53.27
2023-05-01T10:29:28.688Z,51.47
2023-05-01T10:30:28.655Z,51.20
2023-05-01T10:31:28.639Z,54.29
2023-05-01T10:32:28.656Z,51.50
2023-05-01T10:33:28.583Z,51.50
2023-05-01T10:34:28.725Z,52.27
2023-05-01T10:35:28.566Z,51.67
2023-05-01T10:36:28.603Z,49.95
2023-05-01T10:37:28.576Z,49.65
2023-05-01T10:38:28.531Z,51.52
2023-05-01T10:39:28.519Z,51.72
2023-05-01T10:40:28.519Z,48.45
2023-05-01T10:41:28.527Z,50.57
2023-05-01T10:42:28.541Z,52.07
2023-05-01T10:43:28.466Z,49.77
2023-05-01T10:44:28.475Z,49.65
2023-05-01T10:45:28.452Z,50.35
2023-05-01T10:46:28.551Z,48.93
2023-05-01T10:47:28.459Z,47.83
2023-05-01T10:48:28.427Z,48.40
2023-05-01T10:49:28.419Z,48.20
2023-05-01T10:50:28.422Z,48.68
2023-05-01T10:51:28.555Z,47.56
2023-05-01T10:52:28.415Z,47.24
2023-05-01T10:53:28.367Z,47.53
2023-05-01T10:54:28.389Z,49.60
2023-05-01T10:55:28.360Z,48.50
2023-05-01T10:56:28.329Z,46.81
2023-05-01T10:57:28.353Z,48.50
2023-05-01T10:58:28.314Z,45.92
2023-05-01T10:59:28.289Z,47.02
2023-05-01T11:00:28.304Z,47.61
2023-05-01T11:01:28.340Z,45.62
2023-05-01T11:02:28.391Z,45.42
2023-05-01T11:03:28.259Z,45.34
2023-05-01T11:04:28.265Z,45.74
2023-05-01T11:05:35.935Z,47.93
2023-05-01T11:06:29.605Z,45.84
2023-05-01T11:07:28.204Z,46.16
2023-05-01T11:08:28.205Z,46.38
2023-05-01T11:09:28.413Z,48.38
2023-05-01T11:10:28.225Z,50.99
2023-05-01T11:11:28.175Z,49.10
2023-05-01T11:12:28.168Z,48.70
2023-05-01T11:13:28.141Z,49.72
2023-05-01T11:14:28.154Z,47.72
2023-05-01T11:15:28.136Z,48.72
2023-05-01T11:16:28.197Z,47.75
2023-05-01T11:17:28.110Z,48.94
2023-05-01T11:18:28.094Z,47.07
2023-05-01T11:19:29.419Z,47.57
2023-05-01T11:20:28.077Z,48.99
2023-05-01T11:21:28.050Z,49.79
2023-05-01T11:22:28.078Z,48.79
2023-05-01T11:23:28.032Z,49.19
2023-05-01T11:24:28.030Z,48.19
2023-05-01T11:25:28.056Z,48.42
2023-05-01T11:26:28.414Z,49.02
2023-05-01T11:27:27.993Z,51.02
2023-05-01T11:28:27.999Z,54.12
2023-05-01T11:29:28.468Z,53.32
2023-05-01T11:30:27.963Z,49.22
2023-05-01T11:31:28.084Z,49.74
2023-05-01T11:32:27.988Z,50.94
2023-05-01T11:33:27.913Z,51.64
2023-05-01T11:34:27.910Z,49.84
2023-05-01T11:35:27.908Z,49.87
2023-05-01T11:36:27.934Z,49.66
2023-05-01T11:37:27.870Z,50.96
2023-05-01T11:38:27.869Z,50.14
2023-05-01T11:39:27.862Z,48.36
2023-05-01T11:40:27.868Z,49.89
2023-05-01T11:41:27.826Z,49.29
2023-05-01T11:42:27.942Z,52.67
2023-05-01T11:43:27.824Z,48.34
2023-05-01T11:44:27.797Z,51.12
2023-05-01T11:45:27.816Z,50.79
2023-05-01T11:46:27.871Z,47.09
2023-05-01T11:47:27.817Z,47.31
2023-05-01T11:48:27.770Z,48.42
2023-05-01T11:49:27.774Z,48.32
2023-05-01T11:50:27.746Z,48.42
2023-05-01T11:51:27.726Z,48.54
2023-05-01T11:52:27.745Z,47.74
2023-05-01T11:53:27.719Z,47.54
2023-05-01T11:54:27.716Z,47.86
2023-05-01T11:55:27.680Z,49.58
2023-05-01T11:56:27.769Z,48.58
2023-05-01T11:57:27.693Z,51.79
2023-05-01T11:58:27.654Z,53.09
2023-05-01T11:59:27.636Z,54.37
2023-05-01T12:00:27.654Z,51.97
2023-05-01T12:01:27.610Z,50.26
2023-05-01T12:02:27.693Z,49.87
2023-05-01T12:03:27.759Z,49.66
2023-05-01T12:04:31.658Z,49.26
2023-05-01T12:05:27.603Z,49.66
2023-05-01T12:06:27.596Z,53.47
2023-05-01T12:07:27.548Z,51.94
2023-05-01T12:08:27.549Z,48.82
2023-05-01T12:09:27.563Z,48.39
2023-05-01T12:10:27.518Z,48.19
2023-05-01T12:11:27.499Z,48.19
2023-05-01T12:12:27.518Z,47.99
2023-05-01T12:13:27.475Z,47.89
2023-05-01T12:14:27.491Z,47.61
2023-05-01T12:15:27.459Z,47.74
2023-05-01T12:16:27.499Z,50.54
2023-05-01T12:17:27.564Z,50.54
2023-05-01T12:18:27.446Z,48.76
2023-05-01T12:19:27.441Z,49.37
2023-05-01T12:20:27.450Z,49.37
2023-05-01T12:21:27.397Z,49.76
2023-05-01T12:22:27.400Z,48.86
2023-05-01T12:23:27.370Z,48.89
2023-05-01T12:24:27.382Z,49.21
2023-05-01T12:25:27.524Z,51.12
2023-05-01T12:26:27.371Z,51.32
2023-05-01T12:27:27.349Z,47.50
2023-05-01T12:28:27.337Z,47.71
2023-05-01T12:29:27.327Z,46.78
2023-05-01T12:30:27.310Z,45.48
2023-05-01T12:31:27.338Z,46.18
2023-05-01T12:32:27.330Z,46.26
2023-05-01T12:33:27.259Z,46.68
2023-05-01T12:34:27.271Z,47.78
2023-05-01T12:35:27.238Z,48.07
2023-05-01T12:36:27.280Z,45.76
2023-05-01T12:37:27.214Z,45.46
2023-05-01T12:38:27.223Z,48.16
2023-05-01T12:39:27.213Z,47.16
2023-05-01T12:40:27.185Z,48.84
2023-05-01T12:41:27.192Z,49.02
2023-05-01T12:42:27.188Z,45.01
2023-05-01T12:43:27.157Z,46.01
2023-05-01T12:44:27.164Z,46.64
2023-05-01T12:45:27.139Z,46.54
2023-05-01T12:46:27.243Z,46.74
2023-05-01T12:47:27.140Z,46.74
2023-05-01T12:48:27.121Z,46.84
2023-05-01T12:49:27.095Z,45.43
2023-05-01T12:50:27.158Z,45.64
2023-05-01T12:51:27.067Z,45.34
2023-05-01T12:52:34.137Z,47.16